Time;durP1;ratioP1;P1;durP2;ratioP2;P2;SDS_P1;SDS_P2;PMS_P1;PMS_P2;Temp;Humidity;BMP_temperature;BMP_pressure;BME280_temperature;BME280_humidity;BME280_pressure;Samples;Min_cycle;Max_cycle;Signal;HPM_P1;HPM_P2
2021/12/31 00:00:23;;;;;;;1.50;1.40;;;15.30;92.20;;;15.72;60.72;99345.22;4940815;28;124064;-87
2021/12/31 00:02:49;;;;;;;1.47;1.37;;;15.30;92.20;;;15.74;60.47;99345.69;4952090;28;123162;-88
2021/12/31 00:05:15;;;;;;;1.20;1.10;;;15.30;92.20;;;15.74;60.59;99346.50;4942236;28;114410;-87
2021/12/31 00:07:45;;;;;;;2.43;1.17;;;15.30;92.10;;;15.74;60.47;99351.25;4948628;28;114669;-87
2021/12/31 00:10:13;;;;;;;2.23;1.50;;;15.30;92.00;;;15.74;60.17;99356.81;4932811;28;124189;-87
2021/12/31 00:12:42;;;;;;;1.60;1.30;;;15.30;92.00;;;15.72;60.11;99348.81;4938953;28;124043;-86
2021/12/31 00:15:13;;;;;;;1.50;1.40;;;15.30;91.90;;;15.72;60.03;99353.56;4951885;28;114994;-88
2021/12/31 00:17:40;;;;;;;1.73;1.50;;;14.30;91.40;;;15.71;60.11;99349.13;4947388;28;114623;-88
2021/12/31 00:20:16;;;;;;;2.43;1.40;;;15.20;91.90;;;15.71;60.05;99351.91;4953141;28;123188;-88
2021/12/31 00:25:25;;;;;;;1.73;1.50;;;15.30;91.80;;;15.70;59.83;99355.88;4949443;28;115347;-87
2021/12/31 00:27:52;;;;;;;3.77;1.40;;;15.20;91.80;;;15.67;60.12;99357.31;4960617;28;114705;-85
2021/12/31 00:30:20;;;;;;;1.33;1.20;;;15.20;91.80;;;15.67;60.01;99354.53;4941189;28;124267;-86
2021/12/31 00:32:48;;;;;;;2.87;1.17;;;15.20;91.70;;;15.66;60.00;99352.88;4948937;28;122859;-87
2021/12/31 00:35:16;;;;;;;1.63;1.30;;;15.20;91.70;;;15.64;59.71;99352.41;4952199;28;114377;-87
2021/12/31 00:37:43;;;;;;;1.67;1.20;;;15.20;91.70;;;15.64;59.82;99353.22;4949748;28;114008;-86
2021/12/31 00:40:14;;;;;;;1.90;1.20;;;15.20;91.70;;;15.63;59.71;99361.91;4948745;28;123992;-86
2021/12/31 00:42:41;;;;;;;2.50;1.33;;;15.20;91.70;;;15.62;59.89;99365.84;4949388;28;124043;-87
2021/12/31 00:45:12;;;;;;;1.40;1.10;;;15.20;91.70;;;15.61;60.30;99358.66;4948774;28;115518;-86
2021/12/31 00:47:40;;;;;;;3.60;1.50;;;15.20;91.70;;;15.59;59.98;99356.19;4954165;28;114004;-88
2021/12/31 00:50:08;;;;;;;2.23;2.03;;;15.20;91.70;;;15.59;60.14;99355.38;4950715;28;124144;-86
2021/12/31 00:52:37;;;;;;;3.10;1.60;;;15.20;91.80;;;15.59;60.13;99363.72;4979494;28;124442;-87
2021/12/31 00:55:05;;;;;;;1.70;1.30;;;15.20;91.80;;;15.59;60.08;99355.38;4957301;28;114238;-87
2021/12/31 00:57:32;;;;;;;2.70;1.40;;;15.10;91.80;;;15.57;60.22;99358.47;4954886;28;113495;-87
2021/12/31 00:59:59;;;;;;;1.50;1.20;;;15.10;91.80;;;15.55;60.34;99363.56;4951510;28;123484;-87
2021/12/31 01:02:28;;;;;;;1.07;0.97;;;15.10;91.80;;;15.55;60.29;99352.41;4951025;28;123747;-86
2021/12/31 01:04:56;;;;;;;1.40;1.30;;;15.10;91.90;;;15.54;60.43;99358.34;4955282;28;114096;-87
2021/12/31 01:07:43;;;;;;;4.00;1.30;;;15.20;92.00;;;15.52;60.54;99366.19;4947838;28;114506;-88
2021/12/31 01:10:14;;;;;;;1.23;1.10;;;15.10;91.90;;;15.49;60.70;99366.88;4957905;28;124140;-87
2021/12/31 01:12:41;;;;;;;2.80;1.30;;;15.10;92.00;;;15.48;60.70;99370.81;4951235;28;124349;-86
2021/12/31 01:15:18;;;;;;;1.47;1.37;;;15.00;92.00;;;15.48;60.71;99368.84;4943902;28;114715;-88
2021/12/31 01:20:22;;;;;;;1.67;1.13;;;15.00;92.00;;;15.47;60.82;99372.75;4955960;28;124234;-88
2021/12/31 01:22:50;;;;;;;2.07;1.17;;;15.00;92.10;;;15.48;60.75;99384.75;4946128;28;123703;-87
2021/12/31 01:25:17;;;;;;;1.40;1.30;;;15.00;92.10;;;15.49;60.97;99378.81;4948752;28;114335;-87
2021/12/31 01:27:44;;;;;;;3.50;1.80;;;15.00;92.10;;;15.49;61.03;99376.03;4948202;28;113500;-88
2021/12/31 01:30:14;;;;;;;1.40;1.10;;;15.00;92.20;;;15.48;61.01;99377.19;4943365;28;123794;-88
2021/12/31 01:32:42;;;;;;;2.50;1.87;;;15.00;92.20;;;15.45;60.72;99373.09;4945145;28;123902;-87
2021/12/31 01:35:29;;;;;;;2.07;1.60;;;15.00;92.20;;;15.43;60.96;99364.25;4968826;28;114346;-87
2021/12/31 01:37:57;;;;;;;1.53;1.30;;;15.00;92.20;;;15.41;60.76;99374.91;4950143;28;113776;-87
2021/12/31 01:40:23;;;;;;;1.20;1.10;;;15.00;92.20;;;15.40;61.04;99369.69;4943626;28;124141;-88
2021/12/31 01:43:11;;;;;;;3.60;1.60;;;14.90;92.20;;;15.36;60.88;99375.06;4952060;28;123732;-86
2021/12/31 01:45:55;;;;;;;2.33;1.57;;;14.90;92.20;;;15.34;61.06;99373.75;4958551;28;113820;-87
2021/12/31 01:48:34;;;;;;;2.20;1.50;;;14.90;92.20;;;15.28;61.12;99381.47;4951882;28;113968;-85
2021/12/31 01:51:02;;;;;;;1.40;1.20;;;14.90;92.20;;;15.25;61.11;99371.00;4953902;28;124486;-86
2021/12/31 01:53:29;;;;;;;1.57;1.40;;;14.80;92.20;;;15.20;61.11;99371.16;4951864;28;124233;-87
2021/12/31 01:56:00;;;;;;;2.80;1.17;;;14.80;92.20;;;15.16;61.25;99373.78;4955743;28;114345;-87
2021/12/31 01:58:28;;;;;;;2.30;1.20;;;14.80;92.20;;;15.15;61.21;99388.03;4952262;28;114048;-87
2021/12/31 02:00:55;;;;;;;1.63;1.33;;;14.70;92.20;;;15.11;61.17;99384.28;4955578;28;123241;-87
2021/12/31 02:03:24;;;;;;;1.30;1.20;;;14.70;92.20;;;15.07;61.15;99378.56;4958561;28;123839;-88
2021/12/31 02:05:51;;;;;;;1.87;1.40;;;14.70;92.20;;;15.05;61.30;99369.72;4938565;28;114736;-85
2021/12/31 02:08:18;;;;;;;1.30;1.20;;;14.60;92.20;;;15.05;61.27;99378.06;4955049;28;114047;-86
2021/12/31 02:10:49;;;;;;;1.60;1.20;;;14.60;92.20;;;15.06;61.36;99373.31;4983822;28;124133;-85
2021/12/31 02:13:18;;;;;;;1.43;1.20;;;14.60;92.20;;;15.03;61.32;99366.44;4953738;28;123768;-88
2021/12/31 02:15:46;;;;;;;1.40;1.17;;;14.60;92.30;;;15.00;61.49;99361.53;4961634;28;115140;-87
2021/12/31 02:18:13;;;;;;;1.60;1.50;;;14.60;92.30;;;14.98;61.36;99370.19;4950201;28;113496;-88
2021/12/31 02:21:38;;;;;;;2.43;1.30;;;14.60;92.30;;;14.95;61.36;99362.50;4956814;28;122758;-87
2021/12/31 02:24:07;;;;;;;1.77;1.30;;;14.50;92.20;;;14.92;61.56;99365.94;4946839;28;124004;-88
2021/12/31 02:26:35;;;;;;;4.80;1.70;;;14.50;92.30;;;14.92;61.53;99363.16;4955042;28;114343;-87
2021/12/31 02:29:23;;;;;;;2.23;1.53;;;14.50;92.30;;;14.88;61.42;99364.13;4952374;28;113931;-88
2021/12/31 02:31:51;;;;;;;2.50;1.33;;;14.50;92.30;;;14.86;61.37;99364.50;4938431;28;125014;-87
2021/12/31 02:34:17;;;;;;;1.40;1.27;;;14.40;92.20;;;14.84;61.32;99364.00;4954704;28;123772;-87
2021/12/31 02:36:45;;;;;;;1.37;1.27;;;14.40;92.20;;;14.86;61.35;99352.53;4940355;28;114162;-87
2021/12/31 02:39:30;;;;;;;1.17;1.00;;;14.40;92.20;;;14.86;61.49;99361.72;4950491;28;114027;-87
2021/12/31 02:41:58;;;;;;;2.40;1.50;;;14.40;92.50;;;14.86;61.24;99355.31;4942016;28;123106;-86
2021/12/31 02:44:25;;;;;;;1.40;1.27;;;14.40;92.30;;;14.86;61.59;99356.13;4958754;28;123984;-88
2021/12/31 02:46:52;;;;;;;1.53;1.40;;;14.40;92.30;;;14.86;61.17;99361.72;4961551;28;113248;-88
2021/12/31 02:49:39;;;;;;;2.37;1.40;;;14.40;92.30;;;14.85;61.49;99353.66;4941326;28;113142;-87
2021/12/31 02:52:12;;;;;;;2.13;1.30;;;14.40;92.20;;;14.83;61.35;99351.22;4949163;28;124408;-86
2021/12/31 02:54:43;;;;;;;1.90;1.60;;;14.30;92.20;;;14.80;61.38;99357.44;4952275;28;122028;-87
2021/12/31 02:57:12;;;;;;;1.40;1.30;;;14.40;92.30;;;14.78;61.31;99354.19;4984779;28;115310;-87
2021/12/31 02:59:41;;;;;;;1.50;1.40;;;14.30;92.20;;;14.76;61.37;99343.38;4960956;28;115245;-87
2021/12/31 03:02:08;;;;;;;2.27;1.67;;;14.30;92.20;;;14.75;61.28;99340.94;4960854;28;124735;-87
2021/12/31 03:04:39;;;;;;;1.20;1.03;;;14.30;92.20;;;14.75;61.24;99338.16;4963066;28;124125;-87
2021/12/31 03:07:07;;;;;;;1.33;1.20;;;14.30;92.20;;;14.70;61.46;99341.91;4961918;28;114305;-86
2021/12/31 03:09:54;;;;;;;1.63;1.40;;;14.30;92.20;;;14.70;61.12;99341.09;4954347;28;113097;-87
2021/12/31 03:12:23;;;;;;;1.77;1.37;;;14.20;92.20;;;14.67;61.27;99341.72;4962926;28;125183;-87
2021/12/31 03:14:50;;;;;;;3.10;1.50;;;14.20;92.20;;;14.64;61.22;99337.66;4954771;28;123662;-87
2021/12/31 03:17:19;;;;;;;1.67;1.30;;;14.20;92.20;;;14.63;61.17;99329.63;4937878;28;114284;-87
2021/12/31 03:19:46;;;;;;;1.70;1.23;;;14.20;92.20;;;14.64;61.22;99331.25;4951216;28;113918;-88
2021/12/31 03:22:16;;;;;;;1.30;1.20;;;14.10;92.20;;;14.62;61.22;99330.78;4951169;28;124271;-86
2021/12/31 03:24:43;;;;;;;3.00;1.53;;;14.10;92.20;;;14.61;61.18;99327.16;4954256;28;123578;-86
2021/12/31 03:27:10;;;;;;;1.20;1.10;;;14.20;92.20;;;14.60;61.25;99336.66;4954389;28;113699;-88
2021/12/31 03:29:38;;;;;;;1.40;1.30;;;14.10;92.20;;;14.59;61.14;99337.81;4952359;28;113962;-87
2021/12/31 03:32:24;;;;;;;1.20;1.10;;;14.10;92.20;;;14.56;61.21;99336.50;4941958;28;124166;-87
2021/12/31 03:34:50;;;;;;;4.50;1.10;;;14.10;92.10;;;14.53;61.13;99337.16;4950520;28;123844;-87
2021/12/31 03:37:17;;;;;;;1.90;1.23;;;14.00;92.10;;;14.50;61.12;99340.53;4984228;28;114016;-88
2021/12/31 03:39:44;;;;;;;1.33;1.23;;;14.00;92.10;;;14.49;61.14;99335.31;4955890;28;113936;-88
2021/12/31 03:42:14;;;;;;;1.60;1.30;;;14.00;92.20;;;14.46;61.39;99336.78;4957796;28;124363;-86
2021/12/31 03:44:42;;;;;;;2.10;1.80;;;14.00;92.10;;;14.42;61.19;99338.56;4956974;28;124050;-87
2021/12/31 03:47:09;;;;;;;1.73;1.30;;;14.00;92.40;;;14.39;61.24;99347.53;4951598;28;114863;-87
2021/12/31 03:49:36;;;;;;;1.57;1.30;;;13.90;92.10;;;14.35;61.36;99336.25;4960774;28;116105;-88
2021/12/31 03:52:03;;;;;;;1.57;1.37;;;13.90;92.10;;;14.33;61.44;99343.28;4949536;28;124037;-88
2021/12/31 03:54:30;;;;;;;2.57;1.40;;;13.90;92.20;;;14.32;61.42;99341.66;4952128;28;124253;-88
2021/12/31 03:56:56;;;;;;;1.80;1.40;;;13.90;92.20;;;14.29;61.50;99336.72;4957387;28;114263;-86
2021/12/31 03:59:23;;;;;;;1.30;1.20;;;13.80;92.20;;;14.27;61.49;99334.28;4950859;28;114538;-87
2021/12/31 04:01:50;;;;;;;1.83;1.30;;;13.80;92.20;;;14.25;61.39;99341.31;4951130;28;123221;-87
2021/12/31 04:04:18;;;;;;;1.93;1.40;;;13.80;92.20;;;14.23;61.47;99343.59;4954040;28;124010;-88
2021/12/31 04:06:44;;;;;;;3.03;1.30;;;13.80;92.20;;;14.23;61.66;99340.81;4950506;28;114324;-87
2021/12/31 04:09:13;;;;;;;2.60;1.27;;;13.80;92.20;;;14.23;61.32;99344.41;4939189;28;113878;-85
2021/12/31 04:11:40;;;;;;;1.53;1.40;;;13.70;92.20;;;14.23;61.53;99344.41;4958437;28;123176;-88
2021/12/31 04:14:07;;;;;;;1.40;1.30;;;13.70;92.20;;;14.21;61.47;99340.31;4955238;28;123718;-87
2021/12/31 04:16:35;;;;;;;1.97;1.47;;;13.70;92.20;;;14.18;61.64;99341.78;4934774;28;114234;-86
2021/12/31 04:19:04;;;;;;;1.50;1.20;;;13.70;92.20;;;14.13;61.80;99334.44;4949508;28;114495;-87
2021/12/31 04:21:51;;;;;;;1.40;1.17;;;13.60;92.20;;;14.11;61.76;99336.69;4948460;28;123999;-87
2021/12/31 04:24:52;;;;;;;2.20;1.40;;;13.60;92.20;;;14.09;61.72;99333.41;4952526;28;124441;-88
2021/12/31 04:27:17;;;;;;;1.40;1.30;;;13.60;92.30;;;14.05;61.61;99335.22;4958524;28;114191;-88
2021/12/31 04:29:50;;;;;;;1.50;1.23;;;13.60;92.30;;;14.04;61.79;99336.34;4950723;28;114055;-87
2021/12/31 04:32:36;;;;;;;1.37;1.20;;;13.50;92.30;;;14.03;61.69;99333.91;4950878;28;123876;-86
2021/12/31 04:35:03;;;;;;;2.57;1.10;;;13.50;92.30;;;14.01;61.78;99331.44;4949997;28;123363;-88
2021/12/31 04:37:29;;;;;;;2.10;1.40;;;13.50;92.30;;;13.99;61.88;99330.13;4952780;28;114938;-87
2021/12/31 04:40:16;;;;;;;3.53;1.40;;;13.50;92.30;;;13.98;61.89;99329.31;4954552;28;114263;-87
2021/12/31 04:42:44;;;;;;;1.60;1.40;;;13.50;92.40;;;13.98;62.08;99326.53;4950401;28;124346;-87
2021/12/31 04:45:13;;;;;;;1.60;1.40;;;13.50;92.40;;;13.96;61.74;99323.25;4955177;28;124224;-85
2021/12/31 04:48:19;;;;;;;1.57;1.20;;;13.50;92.40;;;13.92;61.94;99327.81;4958617;28;114260;-86
2021/12/31 04:50:46;;;;;;;2.93;1.50;;;13.40;92.40;;;13.90;62.16;99325.34;4950259;28;113777;-87
2021/12/31 04:53:13;;;;;;;2.30;1.30;;;13.40;92.40;;;13.90;62.09;99319.00;4945509;28;124654;-86
2021/12/31 04:55:40;;;;;;;1.30;1.20;;;13.40;92.40;;;13.90;62.02;99325.34;4958899;28;123476;-86
2021/12/31 04:58:06;;;;;;;1.47;1.37;;;13.40;92.40;;;13.90;62.19;99325.34;4956610;28;114144;-88
2021/12/31 05:00:34;;;;;;;1.30;1.20;;;13.40;92.50;;;13.90;62.10;99319.00;4946974;28;114523;-88
2021/12/31 05:03:11;;;;;;;2.17;1.50;;;13.40;92.50;;;13.89;62.01;99311.81;4942091;28;123994;-88
2021/12/31 05:05:38;;;;;;;1.83;1.40;;;13.40;92.50;;;13.88;62.05;99321.25;4949844;28;124646;-87
2021/12/31 05:08:05;;;;;;;5.33;1.50;;;13.30;92.50;;;13.88;62.09;99324.03;4933630;28;113825;-87
2021/12/31 05:10:32;;;;;;;1.60;1.27;;;13.40;92.50;;;13.89;61.86;99317.38;4961206;28;114031;-86
2021/12/31 05:13:03;;;;;;;3.30;1.53;;;13.40;92.50;;;13.88;62.00;99324.03;4948887;28;124142;-88
2021/12/31 05:15:38;;;;;;;1.27;1.17;;;13.30;92.50;;;13.87;62.05;99325.19;4961275;28;123829;-87
2021/12/31 05:18:05;;;;;;;1.47;1.20;;;13.30;92.50;;;13.86;62.03;99317.97;4919117;28;114302;-86
2021/12/31 05:20:32;;;;;;;1.70;1.40;;;13.30;92.80;;;13.84;62.13;99315.53;4948621;28;112935;-86
2021/12/31 05:23:00;;;;;;;2.53;1.57;;;13.30;92.50;;;13.83;62.06;99318.63;4947188;28;124258;-87
2021/12/31 05:25:27;;;;;;;1.30;1.20;;;13.40;92.50;;;13.81;62.03;99316.19;4951918;28;124325;-88
2021/12/31 05:27:54;;;;;;;1.30;1.20;;;13.30;92.50;;;13.79;62.14;99317.66;4950328;28;115190;-87
2021/12/31 05:30:22;;;;;;;2.23;1.60;;;13.30;92.50;;;13.77;62.37;99322.69;4960536;28;115153;-87
2021/12/31 05:32:49;;;;;;;1.77;1.40;;;13.20;92.50;;;13.76;62.27;99323.84;4947258;28;123528;-87
2021/12/31 05:35:34;;;;;;;1.40;1.30;;;13.30;92.50;;;13.73;62.15;99316.97;4941167;28;123616;-87
2021/12/31 05:38:56;;;;;;;3.93;1.33;;;13.20;92.50;;;13.68;62.18;99311.56;4949606;28;114372;-87
2021/12/31 05:41:24;;;;;;;1.70;1.40;;;13.20;92.50;;;13.64;62.39;99319.69;4949381;28;113938;-88
2021/12/31 05:43:52;;;;;;;2.33;1.30;;;13.10;92.50;;;13.61;62.40;99317.56;4960733;28;123977;-87
2021/12/31 05:46:20;;;;;;;2.20;1.33;;;13.10;92.50;;;13.59;62.43;99330.13;4950014;28;123971;-88
2021/12/31 05:48:49;;;;;;;2.03;1.20;;;13.10;92.60;;;13.57;62.55;99322.13;4948958;28;113881;-86
2021/12/31 05:51:16;;;;;;;3.93;1.60;;;13.10;92.60;;;13.56;62.57;99314.09;4951490;28;113811;-88
2021/12/31 05:53:43;;;;;;;1.60;1.30;;;13.10;92.60;;;13.53;62.48;99309.19;4958493;28;122993;-86
2021/12/31 05:56:10;;;;;;;1.63;1.50;;;13.00;92.60;;;13.50;62.70;99304.28;4953984;28;124093;-87
2021/12/31 05:58:37;;;;;;;1.60;1.40;;;13.00;92.60;;;13.47;62.62;99312.09;4944661;28;113240;-88
2021/12/31 06:01:04;;;;;;;1.40;1.30;;;13.00;92.60;;;13.46;62.71;99304.94;4946138;28;114056;-88
2021/12/31 06:03:32;;;;;;;2.70;1.50;;;13.00;92.70;;;13.45;62.89;99308.00;4967356;28;123216;-86
2021/12/31 06:05:59;;;;;;;7.13;1.50;;;12.90;92.70;;;13.43;62.77;99310.28;4950594;28;123520;-88
2021/12/31 06:08:44;;;;;;;3.20;1.20;;;12.90;92.70;;;13.42;62.78;99308.66;4942701;28;114380;-87
2021/12/31 06:11:12;;;;;;;2.53;1.40;;;12.90;92.80;;;13.42;62.93;99309.47;4945678;28;113807;-87
2021/12/31 06:13:39;;;;;;;1.50;1.40;;;12.90;92.80;;;13.43;62.80;99310.28;4944071;28;124014;-87
2021/12/31 06:16:06;;;;;;;1.30;1.20;;;12.90;92.80;;;13.45;62.79;99313.56;4950845;28;122956;-87
2021/12/31 06:18:32;;;;;;;2.63;1.50;;;12.90;92.90;;;13.46;62.89;99309.66;4936814;28;115300;-88
2021/12/31 06:21:01;;;;;;;2.20;1.83;;;12.90;92.90;;;13.46;62.77;99306.91;4939833;28;115128;-88
2021/12/31 06:23:28;;;;;;;4.70;1.77;;;12.90;92.90;;;13.45;62.95;99313.56;4941993;28;124034;-87
2021/12/31 06:25:54;;;;;;;2.53;1.90;;;12.90;92.90;;;13.46;62.88;99326.31;4939770;28;123690;-84
2021/12/31 06:28:22;;;;;;;2.53;1.90;;;12.90;92.90;;;13.45;62.83;99319.94;4948621;28;114269;-87
2021/12/31 06:30:48;;;;;;;1.50;1.23;;;12.90;92.90;;;13.44;62.88;99329.41;4946415;28;115133;-87
2021/12/31 06:33:15;;;;;;;1.90;1.57;;;12.90;92.90;;;13.44;62.95;99325.81;4937703;28;124171;-86
2021/12/31 06:35:41;;;;;;;2.00;1.60;;;12.90;92.90;;;13.42;63.11;99336.41;4942929;28;123639;-87
2021/12/31 06:38:08;;;;;;;2.07;1.50;;;12.90;92.90;;;13.42;62.88;99339.19;4942080;28;114317;-87
2021/12/31 06:40:36;;;;;;;2.03;1.50;;;12.90;92.90;;;13.38;63.00;99330.69;4942106;28;114085;-86
2021/12/31 06:43:02;;;;;;;1.63;1.30;;;12.90;92.90;;;13.37;63.03;99325.44;4940281;28;124049;-87
2021/12/31 06:45:30;;;;;;;2.70;1.63;;;12.80;92.90;;;13.36;63.04;99321.03;4946591;28;122169;-87
2021/12/31 06:47:57;;;;;;;1.70;1.60;;;12.80;92.90;;;13.33;63.11;99325.28;4945757;28;114678;-88
2021/12/31 06:50:23;;;;;;;2.03;1.80;;;12.80;92.90;;;13.33;62.99;99316.13;4941223;28;113229;-87
2021/12/31 06:52:50;;;;;;;1.87;1.53;;;12.80;92.90;;;13.30;62.75;99316.75;4944695;28;123663;-88
2021/12/31 06:55:17;;;;;;;1.67;1.57;;;12.80;93.20;;;13.29;63.28;99313.16;4956319;28;123610;-87
2021/12/31 06:57:43;;;;;;;2.50;1.70;;;12.80;92.90;;;13.30;63.15;99325.06;4946613;28;114154;-88
2021/12/31 07:00:10;;;;;;;2.33;1.73;;;12.80;92.90;;;13.29;63.21;99329.81;4937599;28;114148;-88
2021/12/31 07:02:37;;;;;;;2.27;1.60;;;12.80;93.00;;;13.28;63.01;99322.63;4951281;28;124262;-87
2021/12/31 07:05:05;;;;;;;1.50;1.30;;;12.70;92.90;;;13.27;63.11;99323.75;4953988;28;123805;-87
2021/12/31 07:07:32;;;;;;;2.07;1.57;;;12.80;93.00;;;13.27;63.20;99334.84;4948044;28;114959;-87
2021/12/31 07:10:00;;;;;;;1.50;1.37;;;13.10;93.10;;;13.26;63.13;99333.22;4948068;28;114551;-87
2021/12/31 07:12:26;;;;;;;2.50;1.20;;;12.70;93.00;;;13.24;63.04;99344.63;4949738;28;123813;-87
2021/12/31 07:15:12;;;;;;;1.40;1.30;;;12.70;93.00;;;13.24;63.25;99344.63;4953646;28;124033;-87
2021/12/31 07:17:38;;;;;;;1.20;1.10;;;12.70;93.00;;;13.22;63.24;99341.34;4945989;28;114292;-88
2021/12/31 07:20:06;;;;;;;1.70;1.60;;;12.70;93.00;;;13.21;63.73;99342.44;4952957;28;114014;-88
2021/12/31 07:22:35;;;;;;;1.80;1.40;;;12.70;93.10;;;13.21;63.42;99342.44;4955085;28;122863;-88
2021/12/31 07:25:02;;;;;;;1.67;1.23;;;12.70;93.10;;;13.21;63.34;99342.44;4951580;28;124118;-88
2021/12/31 07:28:07;;;;;;;1.50;1.40;;;12.70;93.10;;;13.20;63.27;99338.06;4956152;28;114169;-87
2021/12/31 07:30:35;;;;;;;2.23;1.80;;;12.70;93.10;;;13.20;63.60;99345.56;4945820;28;113091;-89
2021/12/31 07:33:02;;;;;;;3.17;1.40;;;12.80;93.20;;;13.20;63.49;99334.47;4947532;28;123227;-88
2021/12/31 07:36:07;;;;;;;1.80;1.53;;;12.60;93.10;;;13.19;63.59;99333.66;4953351;28;124471;-87
2021/12/31 07:38:37;;;;;;;3.63;1.87;;;12.60;93.20;;;13.19;63.61;99335.56;4949778;28;114305;-89
2021/12/31 07:41:04;;;;;;;1.50;1.40;;;12.60;93.20;;;13.19;63.61;99339.19;4955644;28;114014;-88
2021/12/31 07:43:49;;;;;;;1.87;1.50;;;12.60;93.20;;;13.20;63.76;99329.72;4977845;28;124531;-87
2021/12/31 07:46:35;;;;;;;1.70;1.60;;;12.60;93.30;;;13.20;63.75;99340.81;4953515;28;123325;-88
2021/12/31 07:49:21;;;;;;;1.37;1.27;;;12.60;93.30;;;13.20;63.64;99334.47;4955154;28;114935;-88
2021/12/31 07:51:48;;;;;;;5.50;1.53;;;12.60;93.30;;;13.20;63.79;99340.81;4939598;28;113899;-88
2021/12/31 07:54:16;;;;;;;2.30;1.63;;;12.70;93.40;;;13.17;64.02;99344.25;4947273;28;124150;-89
2021/12/31 07:56:42;;;;;;;3.60;1.80;;;12.60;93.40;;;13.16;63.99;99348.13;4950952;28;123846;-86
2021/12/31 07:59:27;;;;;;;1.47;1.30;;;12.60;93.40;;;13.14;64.10;99349.59;4951747;28;115220;-87
2021/12/31 08:01:54;;;;;;;2.43;1.90;;;12.60;93.50;;;13.09;64.47;99350.53;4942125;28;114869;-87
2021/12/31 08:04:21;;;;;;;2.50;2.30;;;12.60;93.50;;;13.09;64.37;99341.41;4946679;28;124793;-87
2021/12/31 08:06:51;;;;;;;2.27;2.07;;;12.60;93.60;;;13.12;64.43;99352.69;4940818;28;123918;-87
2021/12/31 08:09:37;;;;;;;2.13;1.80;;;12.60;93.60;;;13.17;64.39;99363.66;4944625;28;114316;-88
2021/12/31 08:12:04;;;;;;;2.30;1.97;;;12.60;93.60;;;13.16;64.67;99350.91;4940936;28;113956;-86
2021/12/31 08:14:31;;;;;;;2.47;1.93;;;12.60;93.70;;;13.19;64.55;99355.84;4945421;28;124929;-89
2021/12/31 08:17:16;;;;;;;3.53;2.17;;;12.60;93.70;;;13.23;63.90;99350.47;4950066;28;124377;-88
2021/12/31 08:19:44;;;;;;;2.70;2.07;;;12.70;93.70;;;13.24;64.45;99355.72;4944641;28;114472;-87
2021/12/31 08:22:13;;;;;;;2.20;2.00;;;12.70;93.80;;;13.26;64.46;99356.22;4942989;28;113717;-87
2021/12/31 08:24:40;;;;;;;2.03;1.80;;;12.70;93.80;;;13.31;64.43;99360.03;4949525;28;124646;-88
2021/12/31 08:27:08;;;;;;;2.13;1.80;;;12.70;93.80;;;13.34;64.30;99364.94;4936179;28;123052;-86
2021/12/31 08:29:54;;;;;;;2.57;2.30;;;12.90;93.90;;;13.35;64.44;99356.31;4949847;28;113620;-88
2021/12/31 08:32:21;;;;;;;4.17;2.63;;;12.80;93.90;;;13.36;64.47;99362.69;4943406;28;113223;-88
2021/12/31 08:34:47;;;;;;;3.10;2.37;;;12.80;93.90;;;13.38;64.40;99357.59;4942442;28;124147;-88
2021/12/31 08:37:35;;;;;;;4.13;2.10;;;12.80;93.90;;;13.39;64.53;99360.06;4943927;28;123014;-87
2021/12/31 08:40:05;;;;;;;3.10;2.40;;;12.80;93.90;;;13.39;64.37;99339.84;4970401;28;113557;-88
2021/12/31 08:42:31;;;;;;;2.37;2.03;;;12.80;93.90;;;13.40;64.49;99339.50;4951012;28;113087;-88
2021/12/31 08:44:59;;;;;;;2.50;2.10;;;12.80;93.90;;;13.43;64.46;99349.16;4941044;28;124858;-88
2021/12/31 08:47:26;;;;;;;4.30;2.63;;;12.80;93.90;;;13.46;64.46;99342.97;4943051;28;123934;-89
2021/12/31 08:49:52;;;;;;;3.60;2.70;;;12.90;94.00;;;13.47;64.56;99339.06;4935329;28;114973;-89
2021/12/31 08:52:40;;;;;;;2.90;2.33;;;12.90;94.00;;;13.50;64.51;99343.16;4937710;28;114897;-88
2021/12/31 08:55:09;;;;;;;3.00;2.10;;;12.90;94.00;;;13.52;64.38;99335.34;4943600;28;124318;-88
2021/12/31 08:57:37;;;;;;;4.07;2.87;;;12.90;94.00;;;13.55;64.39;99334.69;4943034;28;123970;-88
2021/12/31 09:00:07;;;;;;;3.10;2.30;;;12.90;94.00;;;13.58;64.55;99323.75;4944112;28;114192;-88
2021/12/31 09:02:39;;;;;;;3.87;2.43;;;13.00;94.10;;;13.61;64.65;99327.84;4943097;28;113645;-88
2021/12/31 09:05:08;;;;;;;4.07;2.83;;;13.00;94.10;;;13.63;64.13;99331.94;4950881;28;125743;-88
2021/12/31 09:07:35;;;;;;;4.17;2.60;;;13.00;94.10;;;13.66;64.60;99331.31;4940148;28;124646;-87
2021/12/31 09:10:05;;;;;;;4.20;3.03;;;13.10;94.10;;;13.68;64.60;99331.81;4936088;28;115713;-82
2021/12/31 09:12:31;;;;;;;4.23;2.67;;;13.10;94.10;;;13.76;65.25;99332.19;4931264;28;114071;-83
2021/12/31 09:14:58;;;;;;;4.00;2.90;;;13.10;94.50;;;13.88;65.04;99332.38;4950033;28;123760;-81
2021/12/31 09:17:25;;;;;;;4.27;2.87;;;13.20;94.60;;;13.95;64.84;99331.91;4945866;28;123631;-84
2021/12/31 09:19:51;;;;;;;4.10;2.80;;;13.30;94.60;;;14.01;64.84;99334.22;4944948;28;114292;-81
2021/12/31 09:22:18;;;;;;;5.30;3.63;;;13.30;94.50;;;14.04;64.61;99333.56;4947891;28;113955;-84
2021/12/31 09:24:45;;;;;;;3.70;2.90;;;13.40;94.50;;;14.08;64.44;99340.13;4948063;28;124278;-85
2021/12/31 09:27:11;;;;;;;3.37;2.73;;;13.50;94.40;;;14.09;64.50;99332.59;4959867;28;123877;-83
2021/12/31 09:29:39;;;;;;;7.07;4.50;;;13.40;94.40;;;14.08;64.14;99312.34;4952521;28;114319;-83
2021/12/31 09:32:06;;;;;;;5.33;3.10;;;13.50;94.30;;;14.05;64.34;99321.31;4948926;28;113999;-85
2021/12/31 09:34:34;;;;;;;5.17;3.83;;;13.50;94.20;;;14.03;64.32;99322.78;4949402;28;124918;-80
2021/12/31 09:37:01;;;;;;;4.00;3.30;;;13.50;94.20;;;14.04;64.42;99313.31;4942406;28;124039;-87
2021/12/31 09:39:28;;;;;;;4.20;3.20;;;13.50;94.20;;;14.04;64.41;99322.44;4941413;28;115031;-90
2021/12/31 09:41:55;;;;;;;5.20;3.43;;;13.50;94.10;;;14.03;64.38;99322.78;4942012;28;113247;-86
2021/12/31 09:44:59;;;;;;;3.70;3.23;;;13.50;94.10;;;14.02;64.44;99321.94;4944269;28;124429;-88
2021/12/31 09:47:27;;;;;;;3.83;3.23;;;13.50;94.10;;;14.05;64.58;99314.94;4939289;28;123875;-87
2021/12/31 09:49:54;;;;;;;3.90;2.87;;;13.50;94.10;;;14.08;64.34;99323.47;4937375;28;114228;-86
2021/12/31 09:52:23;;;;;;;4.00;3.60;;;13.50;94.10;;;14.12;64.45;99327.22;4940733;28;114854;-88
2021/12/31 09:54:49;;;;;;;4.67;3.60;;;13.70;94.20;;;14.15;64.29;99332.13;4940220;28;124049;-87
2021/12/31 09:57:20;;;;;;;4.20;3.60;;;13.60;94.20;;;14.16;64.36;99330.19;4934723;28;123580;-88
2021/12/31 09:59:47;;;;;;;4.00;3.17;;;13.60;94.10;;;14.20;64.17;99330.34;4942689;28;114323;-87
2021/12/31 10:02:28;;;;;;;3.80;2.90;;;13.60;94.10;;;14.21;64.16;99335.59;4936853;28;114074;-85
2021/12/31 10:05:00;;;;;;;3.60;3.30;;;13.60;94.10;;;14.22;64.01;99330.84;4972211;28;124437;-88
2021/12/31 10:07:30;;;;;;;4.00;3.17;;;13.60;94.10;;;14.24;63.99;99328.53;4952497;28;123704;-88
2021/12/31 10:10:16;;;;;;;5.47;3.60;;;13.70;94.10;;;14.25;64.02;99325.44;4950824;28;113822;-88
2021/12/31 10:12:43;;;;;;;3.77;3.37;;;13.70;94.00;;;14.24;63.99;99318.25;4946813;28;113159;-88
2021/12/31 10:15:10;;;;;;;4.10;3.30;;;13.70;93.90;;;14.27;63.82;99312.06;4949473;28;123128;-88
2021/12/31 10:17:39;;;;;;;4.37;3.57;;;13.80;93.90;;;14.29;63.67;99314.50;4947485;28;124331;-89
2021/12/31 10:20:07;;;;;;;5.80;4.20;;;13.70;93.90;;;14.30;63.69;99316.16;4945756;28;114290;-87
2021/12/31 10:23:16;;;;;;;5.73;3.37;;;13.70;93.80;;;14.29;63.70;99308.94;4946575;28;114112;-87
2021/12/31 10:25:46;;;;;;;4.33;3.07;;;13.80;93.80;;;14.33;63.70;99310.75;4940518;28;124528;-88
2021/12/31 10:28:36;;;;;;;5.03;3.50;;;13.80;93.80;;;14.37;63.72;99288.66;4941729;28;124702;-86
2021/12/31 10:31:14;;;;;;;3.43;2.60;;;13.90;93.80;;;14.43;63.50;99294.91;4941602;28;113278;-87
2021/12/31 10:33:46;;;;;;;4.30;2.93;;;13.90;93.80;;;14.45;63.48;99298.16;4949584;28;114173;-87